Time;durP1;ratioP1;P1;durP2;ratioP2;P2;SDS_P1;SDS_P2;PMS_P1;PMS_P2;Temp;Humidity;BMP_temperature;BMP_pressure;BME280_temperature;BME280_humidity;BME280_pressure;Samples;Min_cycle;Max_cycle;Signal;HPM_P1;HPM_P2
2022/07/09 00:01:57;;;;;;;;;;;;;;;19.42;62.74;99829.63;4908530;29;19926;-70
2022/07/09 00:04:23;;;;;;;;;;;;;;;19.37;62.33;99825.13;4927656;29;19933;-69
2022/07/09 00:06:49;;;;;;;;;;;;;;;19.37;62.27;99827.06;4909271;29;19927;-69
2022/07/09 00:09:15;;;;;;;;;;;;;;;19.31;62.64;99826.44;4911106;29;19926;-71
2022/07/09 00:11:40;;;;;;;;;;;;;;;19.26;62.54;99824.66;4911119;29;19979;-69
2022/07/09 00:14:08;;;;;;;;;;;;;;;19.26;62.75;99823.84;4913968;29;20391;-70
2022/07/09 00:16:33;;;;;;;;;;;;;;;19.25;62.95;99828.56;4910553;29;19958;-69
2022/07/09 00:18:59;;;;;;;;;;;;;;;19.23;62.82;99833.63;4912659;29;19977;-69
2022/07/09 00:21:25;;;;;;;;;;;;;;;19.21;62.75;99832.38;4910652;29;20010;-69
2022/07/09 00:23:51;;;;;;;;;;;;;;;19.16;63.13;99838.91;4909867;29;19982;-69
2022/07/09 00:26:18;;;;;;;;;;;;;;;19.12;63.45;99837.91;4908691;29;20378;-68
2022/07/09 00:28:44;;;;;;;;;;;;;;;19.08;63.77;99837.78;4908536;29;20042;-68
2022/07/09 00:31:11;;;;;;;;;;;;;;;19.09;63.86;99838.59;4907027;29;20026;-68
2022/07/09 00:33:37;;;;;;;;;;;;;;;19.09;63.16;99839.41;4925419;29;20379;-69
2022/07/09 00:36:02;;;;;;;;;;;;;;;19.08;63.11;99843.34;4909085;29;19959;-68
2022/07/09 00:38:28;;;;;;;;;;;;;;;19.02;63.58;99841.06;4925345;29;19927;-68
2022/07/09 00:40:54;;;;;;;;;;;;;;;18.94;63.57;99837.94;4923611;29;19954;-69
2022/07/09 00:43:21;;;;;;;;;;;;;;;18.87;63.69;99837.66;4909660;29;20254;-69
2022/07/09 00:45:47;;;;;;;;;;;;;;;18.78;63.83;99834.91;4908601;29;19927;-68
2022/07/09 00:48:15;;;;;;;;;;;;;;;18.75;63.98;99827.28;4909275;29;19935;-68
2022/07/09 00:50:41;;;;;;;;;;;;;;;18.74;63.91;99833.13;4912287;29;19975;-69
2022/07/09 00:53:08;;;;;;;;;;;;;;;18.71;63.84;99832.66;4923902;29;20399;-69
2022/07/09 00:55:35;;;;;;;;;;;;;;;18.77;63.68;99833.28;4911436;29;19973;-68
2022/07/09 00:58:01;;;;;;;;;;;;;;;18.80;63.53;99826.25;4910426;29;20362;-69
2022/07/09 01:00:27;;;;;;;;;;;;;;;18.79;63.42;99825.47;4905472;29;19994;-68
2022/07/09 01:02:53;;;;;;;;;;;;;;;18.80;62.97;99824.31;4908894;29;19934;-69
2022/07/09 01:05:20;;;;;;;;;;;;;;;18.81;63.25;99830.66;4907439;29;19927;-70
2022/07/09 01:07:46;;;;;;;;;;;;;;;18.83;62.86;99822.84;4909184;29;20002;-68
2022/07/09 01:10:11;;;;;;;;;;;;;;;18.84;62.82;99832.78;4924157;29;20375;-69
2022/07/09 01:12:37;;;;;;;;;;;;;;;18.87;62.78;99825.75;4921888;29;19956;-69
2022/07/09 01:15:03;;;;;;;;;;;;;;;18.91;62.92;99835.84;4907681;29;19927;-68
2022/07/09 01:17:36;;;;;;;;;;;;;;;18.96;63.01;99829.31;4905194;29;19974;-69
2022/07/09 01:20:02;;;;;;;;;;;;;;;18.97;63.00;99834.53;4909653;29;19926;-69
2022/07/09 01:22:30;;;;;;;;;;;;;;;19.03;62.82;99843.50;4908788;29;20514;-69
2022/07/09 01:24:56;;;;;;;;;;;;;;;19.10;62.61;99843.81;4908466;29;20393;-68
2022/07/09 01:27:22;;;;;;;;;;;;;;;19.25;62.35;99844.41;4909094;29;19930;-68
2022/07/09 01:29:49;;;;;;;;;;;;;;;19.37;61.92;99841.75;4910002;29;19927;-69
2022/07/09 01:32:15;;;;;;;;;;;;;;;19.48;62.03;99844.13;4907614;29;19934;-69
2022/07/09 01:34:40;;;;;;;;;;;;;;;19.53;61.61;99841.19;4907911;29;20317;-69
2022/07/09 01:37:06;;;;;;;;;;;;;;;19.55;61.70;99834.13;4923002;29;19927;-68
2022/07/09 01:39:33;;;;;;;;;;;;;;;19.56;61.98;99832.19;4907801;29;19968;-69
2022/07/09 01:41:59;;;;;;;;;;;;;;;19.52;62.19;99828.47;4922801;29;19927;-68
2022/07/09 01:44:25;;;;;;;;;;;;;;;19.48;62.29;99830.25;4907539;29;20370;-68
2022/07/09 01:46:50;;;;;;;;;;;;;;;19.44;62.17;99832.09;4907401;29;20409;-68
2022/07/09 01:49:16;;;;;;;;;;;;;;;19.40;62.30;99827.22;4908952;29;19931;-69
2022/07/09 01:51:42;;;;;;;;;;;;;;;19.37;62.49;99833.44;4909241;29;19927;-69
2022/07/09 01:54:08;;;;;;;;;;;;;;;19.33;62.52;99831.66;4909936;29;19950;-69
2022/07/09 01:56:35;;;;;;;;;;;;;;;19.23;63.10;99825.31;4907055;29;20399;-69
2022/07/09 01:59:01;;;;;;;;;;;;;;;19.20;63.32;99825.16;4907679;29;20381;-69
2022/07/09 02:01:27;;;;;;;;;;;;;;;19.19;63.53;99831.88;4907451;29;20330;-69
2022/07/09 02:03:52;;;;;;;;;;;;;;;19.11;63.52;99830.75;4908278;29;19935;-69
2022/07/09 02:06:18;;;;;;;;;;;;;;;19.08;63.95;99820.34;4907156;29;19934;-68
2022/07/09 02:08:45;;;;;;;;;;;;;;;19.03;64.03;99837.16;4909174;29;19927;-69
2022/07/09 02:11:10;;;;;;;;;;;;;;;18.95;64.61;99830.47;4908786;29;19933;-69
2022/07/09 02:13:37;;;;;;;;;;;;;;;18.89;65.10;99831.78;4908642;29;19927;-69
2022/07/09 02:16:24;;;;;;;;;;;;;;;18.83;65.41;99831.97;4895518;29;20302;-68
2022/07/09 02:18:50;;;;;;;;;;;;;;;18.82;65.34;99837.84;4910832;29;19926;-68
2022/07/09 02:21:16;;;;;;;;;;;;;;;18.79;65.75;99836.53;4905753;29;20288;-68
2022/07/09 02:23:42;;;;;;;;;;;;;;;18.80;65.99;99840.09;4908517;29;20030;-69
2022/07/09 02:26:08;;;;;;;;;;;;;;;18.75;66.17;99843.88;4906554;29;19927;-69
2022/07/09 02:28:33;;;;;;;;;;;;;;;18.72;66.44;99836.22;4909051;29;20322;-68
2022/07/09 02:31:01;;;;;;;;;;;;;;;18.71;66.84;99837.34;4907480;29;20017;-68
2022/07/09 02:33:26;;;;;;;;;;;;;;;18.69;66.60;99836.88;4905426;29;19927;-69
2022/07/09 02:35:52;;;;;;;;;;;;;;;18.74;66.59;99838.66;4907415;29;20422;-68
2022/07/09 02:38:18;;;;;;;;;;;;;;;18.85;66.65;99840.75;4909383;29;19927;-69
2022/07/09 02:40:43;;;;;;;;;;;;;;;19.01;66.22;99845.78;4908166;29;20302;-69
2022/07/09 02:43:09;;;;;;;;;;;;;;;19.18;65.54;99847.69;4909805;29;19927;-69
2022/07/09 02:45:35;;;;;;;;;;;;;;;19.35;65.33;99852.34;4905365;29;20528;-69
2022/07/09 02:48:02;;;;;;;;;;;;;;;19.41;64.65;99851.00;4925097;29;20434;-69
2022/07/09 02:50:28;;;;;;;;;;;;;;;19.45;64.75;99850.34;4905757;29;19927;-69
2022/07/09 02:52:53;;;;;;;;;;;;;;;19.47;64.86;99853.59;4920317;29;20234;-68
2022/07/09 02:55:19;;;;;;;;;;;;;;;19.45;64.74;99855.88;4922312;29;19927;-68
2022/07/09 02:57:45;;;;;;;;;;;;;;;19.41;64.76;99869.59;4909289;29;19978;-70
2022/07/09 03:00:11;;;;;;;;;;;;;;;19.38;64.97;99865.56;4928309;29;19926;-68
2022/07/09 03:02:37;;;;;;;;;;;;;;;19.42;64.66;99865.66;4924707;29;20385;-68
2022/07/09 03:05:04;;;;;;;;;;;;;;;19.44;64.48;99870.91;4910647;29;20387;-68
2022/07/09 03:07:30;;;;;;;;;;;;;;;19.42;64.72;99868.44;4910586;29;19975;-68
2022/07/09 03:09:56;;;;;;;;;;;;;;;19.42;64.63;99858.19;4910078;29;19927;-67
2022/07/09 03:12:22;;;;;;;;;;;;;;;19.39;64.76;99850.53;4912894;29;19930;-68
2022/07/09 03:14:48;;;;;;;;;;;;;;;19.37;64.61;99850.06;4913352;29;20403;-69
2022/07/09 03:17:13;;;;;;;;;;;;;;;19.39;64.60;99852.47;4913532;29;19933;-69
2022/07/09 03:19:39;;;;;;;;;;;;;;;19.44;64.55;99854.25;4908357;29;19926;-68
2022/07/09 03:22:06;;;;;;;;;;;;;;;19.46;64.30;99869.44;4890813;29;20296;-68
2022/07/09 03:24:32;;;;;;;;;;;;;;;19.50;64.46;99864.84;4911219;29;20466;-69
2022/07/09 03:26:58;;;;;;;;;;;;;;;19.53;63.88;99868.91;4910063;29;19934;-68
2022/07/09 03:29:24;;;;;;;;;;;;;;;19.58;63.83;99867.88;4910559;29;19927;-70
2022/07/09 03:31:49;;;;;;;;;;;;;;;19.65;63.43;99863.44;4910450;29;19926;-68
2022/07/09 03:34:15;;;;;;;;;;;;;;;19.70;63.19;99865.22;4909900;29;19941;-68
2022/07/09 03:36:41;;;;;;;;;;;;;;;19.72;62.83;99864.88;4908558;29;19931;-69
2022/07/09 03:39:09;;;;;;;;;;;;;;;19.70;62.32;99865.22;4910002;29;19930;-70
2022/07/09 03:41:35;;;;;;;;;;;;;;;19.69;62.46;99858.03;4910955;29;19927;-69
2022/07/09 03:44:01;;;;;;;;;;;;;;;19.72;62.11;99851.81;4910815;29;19933;-69
2022/07/09 03:46:26;;;;;;;;;;;;;;;19.76;62.24;99838.09;4912700;29;20021;-68
2022/07/09 03:48:52;;;;;;;;;;;;;;;19.82;62.13;99836.75;4925221;29;20484;-68
2022/07/09 03:51:18;;;;;;;;;;;;;;;19.89;62.03;99822.34;4924101;29;20321;-68
2022/07/09 03:53:43;;;;;;;;;;;;;;;19.95;62.05;99815.50;4909986;29;20207;-67
2022/07/09 03:56:12;;;;;;;;;;;;;;;20.00;61.64;99801.41;4924518;29;19974;-67
2022/07/09 03:58:37;;;;;;;;;;;;;;;20.00;61.85;99792.28;4910202;29;19927;-68
2022/07/09 04:01:03;;;;;;;;;;;;;;;19.93;61.81;99792.81;4910399;29;20324;-69
2022/07/09 04:03:29;;;;;;;;;;;;;;;19.81;62.17;99799.06;4908434;29;20013;-69
2022/07/09 04:05:55;;;;;;;;;;;;;;;19.67;63.16;99815.97;4911252;29;19937;-69
2022/07/09 04:08:20;;;;;;;;;;;;;;;19.57;63.75;99817.19;4906136;29;19927;-68
2022/07/09 04:10:46;;;;;;;;;;;;;;;19.56;63.95;99815.56;4911100;29;19927;-68
2022/07/09 04:13:13;;;;;;;;;;;;;;;19.54;63.92;99815.06;4914826;29;19931;-69
2022/07/09 04:15:39;;;;;;;;;;;;;;;19.52;63.96;99820.94;4910545;29;20029;-68
2022/07/09 04:18:04;;;;;;;;;;;;;;;19.52;64.32;99828.47;4911811;29;20025;-70
2022/07/09 04:20:30;;;;;;;;;;;;;;;19.53;64.50;99838.41;4911498;29;19927;-68
2022/07/09 04:22:56;;;;;;;;;;;;;;;19.58;64.18;99840.97;4910636;29;19933;-69
2022/07/09 04:25:22;;;;;;;;;;;;;;;19.69;63.88;99842.22;4911049;29;20034;-69
2022/07/09 04:27:48;;;;;;;;;;;;;;;19.84;63.35;99840.81;4911132;29;19927;-69
2022/07/09 04:30:15;;;;;;;;;;;;;;;20.08;62.43;99830.22;4911927;29;19927;-69
2022/07/09 04:32:41;;;;;;;;;;;;;;;20.27;61.93;99827.78;4910272;29;19927;-69
2022/07/09 04:35:07;;;;;;;;;;;;;;;20.33;61.68;99835.91;4924038;29;20395;-68
2022/07/09 04:37:33;;;;;;;;;;;;;;;20.24;61.86;99839.56;4895375;29;19927;-69
2022/07/09 04:39:59;;;;;;;;;;;;;;;20.13;61.85;99838.34;4907977;29;19970;-68
2022/07/09 04:42:24;;;;;;;;;;;;;;;20.02;62.04;99842.69;4912794;29;20382;-69
2022/07/09 04:44:50;;;;;;;;;;;;;;;20.01;62.34;99841.06;4914322;29;20029;-68
2022/07/09 04:47:17;;;;;;;;;;;;;;;20.04;62.23;99849.50;4909600;29;19927;-69
2022/07/09 04:49:43;;;;;;;;;;;;;;;20.17;62.22;99844.03;4927974;29;19935;-69
2022/07/09 04:52:09;;;;;;;;;;;;;;;20.33;61.49;99847.03;4910679;29;19927;-69
2022/07/09 04:54:34;;;;;;;;;;;;;;;20.53;60.85;99837.03;4911978;29;19960;-67
2022/07/09 04:57:00;;;;;;;;;;;;;;;20.78;59.67;99829.59;4924106;29;19927;-68
2022/07/09 04:59:26;;;;;;;;;;;;;;;21.01;59.42;99820.84;4910099;29;19931;-68
2022/07/09 05:01:52;;;;;;;;;;;;;;;21.01;59.26;99818.06;4908377;29;19926;-69
2022/07/09 05:04:19;;;;;;;;;;;;;;;20.98;59.43;99813.22;4923979;29;19927;-69
2022/07/09 05:06:45;;;;;;;;;;;;;;;21.04;59.28;99822.94;4911323;29;19934;-69
2022/07/09 05:09:10;;;;;;;;;;;;;;;21.11;58.93;99817.63;4925165;29;19946;-69
2022/07/09 05:11:36;;;;;;;;;;;;;;;21.26;58.51;99818.13;4911822;29;19927;-69
2022/07/09 05:14:02;;;;;;;;;;;;;;;21.35;58.11;99826.34;4909250;29;20395;-69
2022/07/09 05:16:28;;;;;;;;;;;;;;;21.46;57.43;99829.47;4911485;29;19927;-69
2022/07/09 05:18:53;;;;;;;;;;;;;;;21.71;56.74;99816.38;4912843;29;19982;-69
2022/07/09 05:21:20;;;;;;;;;;;;;;;21.92;56.01;99810.66;4913746;29;19949;-69
2022/07/09 05:23:46;;;;;;;;;;;;;;;22.15;55.35;99804.53;4928212;29;19975;-69
2022/07/09 05:26:12;;;;;;;;;;;;;;;22.26;55.11;99807.66;4909459;29;19930;-68
2022/07/09 05:28:38;;;;;;;;;;;;;;;22.38;55.06;99802.00;4909007;29;19961;-70
2022/07/09 05:31:04;;;;;;;;;;;;;;;22.61;54.63;99806.22;4907622;29;20101;-69
2022/07/09 05:33:29;;;;;;;;;;;;;;;22.77;54.32;99809.84;4909465;29;19927;-69
2022/07/09 05:35:55;;;;;;;;;;;;;;;23.02;53.36;99814.44;4909192;29;19982;-69
2022/07/09 05:38:22;;;;;;;;;;;;;;;23.37;52.49;99810.97;4911605;29;19935;-68
2022/07/09 05:40:48;;;;;;;;;;;;;;;23.67;51.39;99804.88;4908946;29;19962;-69
2022/07/09 05:43:14;;;;;;;;;;;;;;;23.77;50.66;99801.50;4912213;29;20431;-69
2022/07/09 05:45:40;;;;;;;;;;;;;;;23.76;50.02;99808.25;4907335;29;20411;-70
2022/07/09 05:48:05;;;;;;;;;;;;;;;23.69;49.89;99818.47;4907168;29;19927;-70
2022/07/09 05:50:31;;;;;;;;;;;;;;;23.60;49.53;99801.91;4908838;29;19927;-69
2022/07/09 05:52:57;;;;;;;;;;;;;;;23.50;49.32;99808.88;4911159;29;19955;-70
2022/07/09 05:55:24;;;;;;;;;;;;;;;23.54;49.32;99797.81;4910815;29;19934;-69
2022/07/09 05:57:50;;;;;;;;;;;;;;;23.61;48.76;99798.78;4907295;29;19966;-69
2022/07/09 06:00:16;;;;;;;;;;;;;;;23.67;48.77;99798.47;4910541;29;19934;-69
2022/07/09 06:02:42;;;;;;;;;;;;;;;23.73;48.20;99800.63;4922515;29;19931;-68
2022/07/09 06:05:08;;;;;;;;;;;;;;;23.86;47.86;99800.50;4911426;29;19998;-69
2022/07/09 06:07:33;;;;;;;;;;;;;;;23.98;47.52;99794.78;4910289;29;19933;-67
2022/07/09 06:09:59;;;;;;;;;;;;;;;24.08;47.15;99787.84;4909385;29;19975;-69
2022/07/09 06:12:26;;;;;;;;;;;;;;;24.11;47.35;99794.66;4910868;29;19983;-69
2022/07/09 06:14:54;;;;;;;;;;;;;;;24.13;47.23;99789.53;4907077;29;19931;-69
2022/07/09 06:17:20;;;;;;;;;;;;;;;24.10;47.22;99791.06;4907532;29;20426;-69
2022/07/09 06:19:46;;;;;;;;;;;;;;;24.04;47.00;99789.72;4907846;29;19934;-68
2022/07/09 06:22:11;;;;;;;;;;;;;;;23.93;46.88;99786.69;4909349;29;19931;-69
2022/07/09 06:24:38;;;;;;;;;;;;;;;23.86;46.55;99787.34;4909032;29;19932;-70
2022/07/09 06:27:04;;;;;;;;;;;;;;;23.94;46.46;99785.50;4909952;29;19962;-69
2022/07/09 06:29:31;;;;;;;;;;;;;;;24.08;46.34;99783.06;4911266;29;19927;-69
2022/07/09 06:32:00;;;;;;;;;;;;;;;24.16;46.01;99791.59;4909613;29;19990;-69
2022/07/09 06:34:26;;;;;;;;;;;;;;;24.14;46.22;99779.97;4910040;29;19927;-69
2022/07/09 06:36:52;;;;;;;;;;;;;;;24.05;46.11;99781.00;4908183;29;19934;-69
2022/07/09 06:42:06;;;;;;;;;;;;;;;24.11;45.80;99775.94;4906341;29;19926;-68
2022/07/09 06:44:33;;;;;;;;;;;;;;;24.24;45.93;99782.16;4909571;29;19934;-69
2022/07/09 06:46:59;;;;;;;;;;;;;;;24.31;45.62;99778.69;4908261;29;19973;-69
2022/07/09 06:49:24;;;;;;;;;;;;;;;24.39;45.32;99771.28;4908533;29;20836;-70
2022/07/09 06:51:50;;;;;;;;;;;;;;;24.34;45.39;99775.16;4908570;29;19931;-68
2022/07/09 06:54:16;;;;;;;;;;;;;;;24.30;45.28;99769.53;4908609;29;19931;-69
2022/07/09 06:56:42;;;;;;;;;;;;;;;24.17;45.58;99768.06;4909827;29;19934;-69
2022/07/09 06:59:07;;;;;;;;;;;;;;;24.21;45.61;99768.94;4909042;29;20398;-69
2022/07/09 07:01:34;;;;;;;;;;;;;;;24.32;45.36;99772.75;4891971;29;20296;-70
2022/07/09 07:04:00;;;;;;;;;;;;;;;24.50;45.00;99770.28;4911638;29;19934;-68
2022/07/09 07:06:26;;;;;;;;;;;;;;;24.88;44.30;99773.38;4905563;29;19927;-69
2022/07/09 07:08:52;;;;;;;;;;;;;;;25.28;43.61;99778.81;4902169;29;20296;-71
2022/07/09 07:11:18;;;;;;;;;;;;;;;25.54;43.12;99771.66;4558178;28;9999852;-69
2022/07/09 07:13:43;;;;;;;;;;;;;;;25.34;43.39;99760.50;4904214;29;20432;-70
2022/07/09 07:16:09;;;;;;;;;;;;;;;25.09;43.90;99763.75;4886351;29;19927;-70
2022/07/09 07:18:37;;;;;;;;;;;;;;;24.88;44.22;99765.00;4902685;29;20349;-69
2022/07/09 07:21:02;;;;;;;;;;;;;;;24.71;44.78;99769.06;4901632;29;20496;-70
2022/07/09 07:23:31;;;;;;;;;;;;;;;24.52;44.91;99772.72;4894553;29;19927;-71
2022/07/09 07:25:57;;;;;;;;;;;;;;;24.29;45.29;99772.69;4909330;29;20395;-70
2022/07/09 07:28:23;;;;;;;;;;;;;;;24.02;45.84;99766.91;4922871;29;20029;-70
2022/07/09 07:30:48;;;;;;;;;;;;;;;23.75;46.43;99769.56;4905122;29;19979;-70
2022/07/09 07:33:14;;;;;;;;;;;;;;;23.52;46.84;99761.88;4909911;29;19926;-70
2022/07/09 07:35:41;;;;;;;;;;;;;;;23.35;47.17;99768.69;4908664;29;19933;-68
2022/07/09 07:38:07;;;;;;;;;;;;;;;23.27;47.87;99758.53;4907983;29;19934;-69
2022/07/09 07:40:33;;;;;;;;;;;;;;;23.29;47.60;99761.75;4904880;29;19931;-70
2022/07/09 07:42:58;;;;;;;;;;;;;;;23.44;47.41;99757.34;4568758;29;10000416;-70
2022/07/09 07:45:24;;;;;;;;;;;;;;;23.70;46.66;99772.63;4921434;29;19927;-68
2022/07/09 07:47:50;;;;;;;;;;;;;;;24.01;46.21;99768.09;4907107;29;19974;-70
2022/07/09 07:50:16;;;;;;;;;;;;;;;24.35;45.22;99774.00;4908375;29;19931;-70
2022/07/09 07:52:43;;;;;;;;;;;;;;;24.51;45.09;99779.50;4907807;29;19927;-71
2022/07/09 07:55:09;;;;;;;;;;;;;;;24.49;44.39;99779.06;4903783;29;19982;-70
2022/07/09 07:57:35;;;;;;;;;;;;;;;24.31;45.15;99793.50;4905694;29;19931;-69
2022/07/09 08:00:00;;;;;;;;;;;;;;;24.07;45.37;99798.19;4904235;29;19927;-69
2022/07/09 08:02:26;;;;;;;;;;;;;;;23.89;45.57;99794.19;4909195;29;19931;-70
2022/07/09 08:04:52;;;;;;;;;;;;;;;23.82;45.60;99796.84;4908524;29;19958;-70
2022/07/09 08:07:18;;;;;;;;;;;;;;;23.73;45.75;99794.25;4910923;29;19955;-70
2022/07/09 08:09:45;;;;;;;;;;;;;;;23.58;46.04;99795.91;4908036;29;20282;-70
2022/07/09 08:12:10;;;;;;;;;;;;;;;23.49;46.04;99807.25;4907307;29;20745;-69
2022/07/09 08:14:36;;;;;;;;;;;;;;;23.43;45.91;99812.28;4906713;29;19931;-70
2022/07/09 08:17:02;;;;;;;;;;;;;;;23.27;45.96;99809.53;4907473;29;20260;-70
2022/07/09 08:19:28;;;;;;;;;;;;;;;23.26;45.92;99816.28;4926257;29;19934;-70
2022/07/09 08:21:53;;;;;;;;;;;;;;;23.29;46.25;99811.97;4907751;29;19934;-70
2022/07/09 08:24:19;;;;;;;;;;;;;;;23.34;46.41;99809.69;4911835;29;19933;-69
2022/07/09 08:26:46;;;;;;;;;;;;;;;23.42;46.64;99807.09;4908162;29;20386;-69
2022/07/09 08:29:12;;;;;;;;;;;;;;;23.35;46.65;99804.94;4924298;29;19930;-69
2022/07/09 08:31:38;;;;;;;;;;;;;;;23.30;47.09;99810.78;4907842;29;20418;-70
2022/07/09 08:34:04;;;;;;;;;;;;;;;23.28;46.96;99811.16;4908249;29;20092;-70
2022/07/09 08:36:29;;;;;;;;;;;;;;;23.25;47.29;99805.47;4909054;29;19931;-69
2022/07/09 08:38:55;;;;;;;;;;;;;;;23.33;47.08;99808.09;4910693;29;19975;-68
2022/07/09 08:41:22;;;;;;;;;;;;;;;23.32;47.39;99811.22;4909187;29;20418;-69
2022/07/09 08:43:51;;;;;;;;;;;;;;;23.24;47.60;99807.44;4912594;29;19970;-70
2022/07/09 08:46:17;;;;;;;;;;;;;;;23.19;47.83;99814.09;4909577;29;20427;-70
2022/07/09 08:48:43;;;;;;;;;;;;;;;23.24;48.25;99810.22;4907793;29;20358;-69
2022/07/09 08:51:09;;;;;;;;;;;;;;;23.18;48.43;99820.03;4908611;29;19931;-69
2022/07/09 08:53:39;;;;;;;;;;;;;;;23.11;48.81;99809.50;4908949;29;19927;-68
2022/07/09 08:56:05;;;;;;;;;;;;;;;23.06;48.89;99807.78;4907586;29;20030;-68
2022/07/09 08:58:32;;;;;;;;;;;;;;;23.14;48.84;99808.78;4901043;29;20152;-69
2022/07/09 09:00:59;;;;;;;;;;;;;;;23.16;49.09;99806.44;4908787;29;20335;-68
2022/07/09 09:03:24;;;;;;;;;;;;;;;23.26;49.13;99795.91;4906802;29;19931;-69
2022/07/09 09:06:00;;;;;;;;;;;;;;;23.33;49.22;99796.94;4907979;29;19927;-68
2022/07/09 09:08:26;;;;;;;;;;;;;;;23.35;49.24;99796.56;4907877;29;19927;-69
2022/07/09 09:10:52;;;;;;;;;;;;;;;23.32;49.25;99800.91;4909020;29;20031;-67
2022/07/09 09:13:18;;;;;;;;;;;;;;;23.13;49.72;99800.78;4909130;29;19927;-69
2022/07/09 09:15:44;;;;;;;;;;;;;;;22.96;50.05;99797.19;4890675;29;19934;-68
2022/07/09 09:18:11;;;;;;;;;;;;;;;23.00;50.40;99800.06;4921782;29;19975;-68
2022/07/09 09:20:37;;;;;;;;;;;;;;;23.01;50.46;99805.28;4905377;29;19934;-68
2022/07/09 09:23:04;;;;;;;;;;;;;;;22.91;50.73;99800.22;4904293;29;20375;-69
2022/07/09 09:25:30;;;;;;;;;;;;;;;22.84;50.64;99800.06;4905124;29;19948;-69
2022/07/09 09:27:57;;;;;;;;;;;;;;;22.77;50.76;99792.31;4911067;29;19958;-70
2022/07/09 09:30:24;;;;;;;;;;;;;;;22.67;51.22;99793.66;4908694;29;19931;-69
2022/07/09 09:32:57;;;;;;;;;;;;;;;22.68;51.42;99786.91;4907806;29;19927;-70
2022/07/09 09:35:25;;;;;;;;;;;;;;;22.76;51.44;99782.34;4908887;29;19931;-69
2022/07/09 09:37:51;;;;;;;;;;;;;;;22.71;51.77;99780.63;4910161;29;19927;-70
2022/07/09 09:40:17;;;;;;;;;;;;;;;22.73;51.37;99767.16;4909313;29;19927;-69
2022/07/09 09:42:45;;;;;;;;;;;;;;;22.78;51.62;99766.88;4911049;29;20322;-68
2022/07/09 09:45:12;;;;;;;;;;;;;;;22.82;51.31;99760.59;4924947;29;20288;-70
2022/07/09 09:47:38;;;;;;;;;;;;;;;22.82;51.54;99752.25;4907072;29;19934;-69
2022/07/09 09:50:05;;;;;;;;;;;;;;;22.82;51.51;99744.66;4921902;29;19927;-69
2022/07/09 09:52:33;;;;;;;;;;;;;;;22.85;52.16;99740.38;4907943;29;19927;-69
2022/07/09 09:55:00;;;;;;;;;;;;;;;22.88;52.56;99725.72;4892229;29;19927;-70
2022/07/09 09:57:27;;;;;;;;;;;;;;;22.96;52.98;99719.16;4908131;29;19974;-69
2022/07/09 09:59:53;;;;;;;;;;;;;;;23.05;53.39;99719.75;4910812;29;19931;-70
2022/07/09 10:02:20;;;;;;;;;;;;;;;23.16;53.40;99710.84;4910460;29;19949;-70
2022/07/09 10:04:46;;;;;;;;;;;;;;;23.26;53.70;99707.53;4925348;29;20017;-70
2022/07/09 10:07:13;;;;;;;;;;;;;;;23.36;53.57;99720.91;4908722;29;20025;-68
2022/07/09 10:09:40;;;;;;;;;;;;;;;23.40;53.46;99726.56;4906633;29;19927;-70
2022/07/09 10:12:08;;;;;;;;;;;;;;;23.55;53.46;99729.66;4927417;29;19927;-70
2022/07/09 10:14:34;;;;;;;;;;;;;;;23.69;52.99;99724.41;4909318;29;19934;-70
2022/07/09 10:17:11;;;;;;;;;;;;;;;23.78;52.68;99718.59;4909196;29;19962;-69
2022/07/09 10:19:37;;;;;;;;;;;;;;;23.84;52.49;99728.28;4910721;29;19986;-69
2022/07/09 10:22:03;;;;;;;;;;;;;;;23.91;52.70;99734.03;4912687;29;20430;-68
2022/07/09 10:24:30;;;;;;;;;;;;;;;23.97;52.61;99734.56;4911742;29;19927;-69
2022/07/09 10:27:05;;;;;;;;;;;;;;;24.05;52.13;99727.94;4909620;29;19934;-68
2022/07/09 10:29:31;;;;;;;;;;;;;;;24.21;51.44;99730.66;4912858;29;19934;-69
2022/07/09 10:31:56;;;;;;;;;;;;;;;24.36;50.90;99725.34;4909158;29;19928;-69
2022/07/09 10:34:32;;;;;;;;;;;;;;;24.49;50.59;99723.19;4909541;29;19927;-69
2022/07/09 10:36:57;;;;;;;;;;;;;;;25.02;49.82;99708.50;4910321;29;20399;-69
2022/07/09 10:39:23;;;;;;;;;;;;;;;25.94;47.86;99704.97;4910184;29;19973;-69
2022/07/09 10:41:58;;;;;;;;;;;;;;;26.67;46.37;99690.50;4909645;29;20451;-70
2022/07/09 10:44:27;;;;;;;;;;;;;;;27.07;44.50;99688.00;4910327;29;19966;-70
2022/07/09 10:46:55;;;;;;;;;;;;;;;27.22;43.08;99683.31;4907476;29;19931;-69
2022/07/09 10:49:21;;;;;;;;;;;;;;;27.74;40.17;99683.19;4920052;29;20383;-68
2022/07/09 10:51:47;;;;;;;;;;;;;;;28.04;39.50;99678.47;4908775;29;19958;-69
2022/07/09 10:54:16;;;;;;;;;;;;;;;28.20;38.27;99661.28;4909524;29;19937;-68
2022/07/09 10:56:42;;;;;;;;;;;;;;;28.60;37.91;99675.34;4903876;29;20390;-69
2022/07/09 10:59:08;;;;;;;;;;;;;;;28.85;36.73;99661.31;4907559;29;19975;-69
2022/07/09 11:01:35;;;;;;;;;;;;;;;28.75;37.23;99658.47;4908213;29;19927;-70
2022/07/09 11:04:02;;;;;;;;;;;;;;;28.48;37.58;99640.00;4907038;29;19934;-68
2022/07/09 11:06:29;;;;;;;;;;;;;;;28.91;37.10;99636.38;4908699;29;19958;-69
2022/07/09 11:08:54;;;;;;;;;;;;;;;29.70;35.54;99631.72;4908802;29;19927;-69
2022/07/09 11:11:20;;;;;;;;;;;;;;;30.56;34.14;99624.69;4907779;29;19927;-70
2022/07/09 11:13:49;;;;;;;;;;;;;;;31.45;32.71;99619.75;4907931;29;19927;-69
2022/07/09 11:16:21;;;;;;;;;;;;;;;31.81;32.51;99614.44;4889109;29;19927;-68
2022/07/09 11:18:48;;;;;;;;;;;;;;;32.23;31.50;99619.84;4911139;29;19927;-69
2022/07/09 11:21:21;;;;;;;;;;;;;;;31.67;32.18;99623.09;4909708;29;20480;-68
2022/07/09 11:23:48;;;;;;;;;;;;;;;31.94;32.10;99600.53;4910247;29;20419;-68
2022/07/09 11:26:14;;;;;;;;;;;;;;;32.43;31.58;99610.69;4909686;29;20026;-70
2022/07/09 11:28:40;;;;;;;;;;;;;;;32.38;31.65;99600.66;4926763;29;20017;-71
2022/07/09 11:31:06;;;;;;;;;;;;;;;31.11;33.55;99607.25;4927715;29;20446;-69
2022/07/09 11:36:18;;;;;;;;;;;;;;;29.17;37.17;99613.81;4913175;29;20100;-69
2022/07/09 11:38:48;;;;;;;;;;;;;;;28.65;38.29;99596.22;4923015;29;20041;-69
2022/07/09 11:41:14;;;;;;;;;;;;;;;28.13;39.12;99593.78;4894304;29;19927;-70
2022/07/09 11:43:45;;;;;;;;;;;;;;;27.85;39.23;99592.53;4927999;29;19934;-68
2022/07/09 11:46:15;;;;;;;;;;;;;;;27.80;39.78;99582.53;4911967;29;20391;-69
2022/07/09 11:48:47;;;;;;;;;;;;;;;27.59;40.66;99586.88;4910526;29;19982;-69
2022/07/09 11:51:13;;;;;;;;;;;;;;;27.25;40.45;99575.09;4907732;29;20213;-70
2022/07/09 11:53:50;;;;;;;;;;;;;;;27.26;40.08;99577.50;4906469;29;20306;-70
2022/07/09 11:56:16;;;;;;;;;;;;;;;28.01;38.76;99576.09;4904734;29;19926;-69
2022/07/09 11:58:48;;;;;;;;;;;;;;;28.58;37.22;99573.75;4565267;28;9999960;-69
2022/07/09 12:01:14;;;;;;;;;;;;;;;28.97;35.73;99567.22;4907243;29;19927;-68
2022/07/09 12:03:46;;;;;;;;;;;;;;;29.16;34.81;99567.97;4906096;29;19927;-68
2022/07/09 12:06:11;;;;;;;;;;;;;;;29.20;34.72;99562.31;4906310;29;20048;-68
2022/07/09 12:08:37;;;;;;;;;;;;;;;29.35;34.52;99560.25;4908515;29;20434;-69
2022/07/09 12:11:04;;;;;;;;;;;;;;;29.49;34.14;99565.03;4906350;29;19937;-69
2022/07/09 12:13:30;;;;;;;;;;;;;;;29.60;33.01;99564.97;4906743;29;19954;-68
2022/07/09 12:15:56;;;;;;;;;;;;;;;29.72;32.78;99568.09;4905189;29;19965;-69
2022/07/09 12:18:22;;;;;;;;;;;;;;;30.55;31.43;99554.59;4907195;29;20306;-70
2022/07/09 12:20:48;;;;;;;;;;;;;;;30.33;31.87;99560.44;4904991;29;20003;-70
2022/07/09 12:23:14;;;;;;;;;;;;;;;30.93;31.32;99554.63;4920207;29;19953;-69
2022/07/09 12:25:40;;;;;;;;;;;;;;;32.75;28.33;99549.91;4903778;29;19927;-71
2022/07/09 12:28:07;;;;;;;;;;;;;;;33.99;26.85;99541.63;4897541;29;20042;-70
2022/07/09 12:30:33;;;;;;;;;;;;;;;33.51;27.47;99541.91;4898790;29;20450;-69
2022/07/09 12:32:59;;;;;;;;;;;;;;;33.68;27.36;99539.13;4906494;29;19927;-69
2022/07/09 12:35:25;;;;;;;;;;;;;;;32.68;28.50;99531.03;4908818;29;20391;-68
2022/07/09 12:37:51;;;;;;;;;;;;;;;30.95;31.20;99538.06;4904496;29;19927;-70
2022/07/09 12:40:16;;;;;;;;;;;;;;;29.73;33.54;99523.84;4920432;29;19974;-71
2022/07/09 12:42:42;;;;;;;;;;;;;;;28.67;35.37;99526.31;4906354;29;20025;-70
2022/07/09 12:45:10;;;;;;;;;;;;;;;27.91;36.88;99525.53;4912091;29;19962;-70
2022/07/09 12:47:35;;;;;;;;;;;;;;;27.41;37.93;99530.66;4905635;29;19975;-70